Flight Track Log - Related Links

Times and Time Zones

All times are in EDT time to prevent confusion due to time zone crossing. See the N830QS flight status page for this flight to view local times or setup timezone preferences in your user account.

Time Position Orientation Groundspeed Altitude Reporting Facility
EDT Latitude Longitude Course Direction KTS MPH feet Rate Location/Type
Fri 08:15:37 AM 25.7981 -80.2792 85° East 155 178 700  Level Miami Center
Fri 08:16:56 AM 25.8042 -80.1986 85° East 172 198 4,500 2,507 Climbing Miami Center
Fri 08:17:51 AM 25.8258 -80.1553 61° Northeast 254 292 6,300 1,800 Climbing Miami Center
Fri 08:17:56 AM 25.8322 -80.1531 17° North 250 288 6,300 2,585 Level Miami Center
Fri 08:18:56 AM 25.9136 -80.1600 356° North 305 351 9,100 2,700 Climbing Miami Center
Fri 08:19:56 AM 25.9778 -80.1872 339° North 281 323 11,700 2,800 Climbing Miami Center
Fri 08:20:56 AM 26.0258 -80.2786 300° West 287 330 14,700 2,550 Climbing Miami Center
Fri 08:21:56 AM 26.0742 -80.3494 307° West 316 364 16,800 2,350 Climbing Miami Center
Fri 08:22:56 AM 26.1564 -80.4003 331° Northwest 311 358 19,400 2,400 Climbing Miami Center
Fri 08:23:56 AM 26.2289 -80.4328 338° Northwest 311 358 21,600 1,950 Climbing Miami Center
Fri 08:24:56 AM 26.3217 -80.4772 337° Northwest 316 364 23,300 1,450 Climbing Miami Center
Fri 08:25:56 AM 26.4022 -80.5144 338° Northwest 334 384 24,500 1,300 Climbing Miami Center
Fri 08:26:56 AM 26.5056 -80.5642 337° Northwest 356 410 25,900 1,250 Climbing Miami Center
Fri 08:27:56 AM 26.5942 -80.6064 337° Northwest 377 434 27,000 550 Climbing Miami Center
Fri 08:28:56 AM 26.7075 -80.6586 338° Northwest 390 449 27,000  Level Miami Center
Fri 08:29:56 AM 26.8067 -80.7039 338° Northwest 390 449 27,000  Level Miami Center
Fri 08:30:56 AM 26.8997 -80.7394 341° North 376 433 27,000  Level Miami Center
Fri 08:31:56 AM 26.9947 -80.7731 343° North 362 417 27,000  Level Miami Center
Fri 08:32:56 AM 27.0858 -80.8042 343° North 351 404 27,000  Level Miami Center
Fri 08:33:56 AM 27.1747 -80.8375 342° North 345 397 27,000  Level Miami Center
Fri 08:34:56 AM 27.2700 -80.8686 344° North 345 397 27,000  Level Miami Center
Fri 08:35:56 AM 27.3525 -80.8972 343° North 340 391 27,000  Level Miami Center
Fri 08:36:56 AM 27.4269 -80.9256 341° North 340 391 27,000  Level Miami Center
Fri 08:37:56 AM 27.5386 -80.9647 343° North 347 399 27,000  Level Miami Center
Fri 08:38:56 AM 27.6358 -80.9986 343° North 347 399 27,000  Level Miami Center
Fri 08:39:56 AM 27.7308 -81.0325 342° North 352 405 27,000  Level Miami Center
Fri 08:40:56 AM 27.8236 -81.0689 341° North 352 405 27,000  Level Miami Center
Fri 08:41:56 AM 27.9308 -81.1103 341° North 362 417 27,000  Level Miami Center
Fri 08:42:56 AM 28.0217 -81.1444 342° North 362 417 27,000  Level Miami Center
Fri 08:43:56 AM 28.1189 -81.1786 343° North 362 417 27,000  Level Miami Center
Fri 08:45:38 AM 28.2708 -81.2358 342° North 368 423 27,000  Level Jacksonville Center
Fri 08:46:38 AM 28.3631 -81.2697 342° North 363 418 27,000  Level Jacksonville Center
Fri 08:47:38 AM 28.4572 -81.3058 341° North 363 418 27,000  Level Jacksonville Center
Fri 08:48:38 AM 28.5536 -81.3350 345° North 363 418 27,000  Level Jacksonville Center
Fri 08:49:38 AM 28.6539 -81.3453 355° North 357 411 27,000 -200 Level Jacksonville Center
Fri 08:50:38 AM 28.7542 -81.3556 355° North 357 411 26,600 -1,000 Descending Jacksonville Center
Fri 08:51:38 AM 28.8631 -81.3681 354° North 368 423 25,000 -1,550 Descending Jacksonville Center
Fri 08:52:38 AM 28.9758 -81.3783 355° North 388 447 23,500 -1,500 Descending Jacksonville Center
Fri 08:53:38 AM 29.0928 -81.3883 356° North 388 447 22,000 -1,500 Descending Jacksonville Center
Fri 08:54:38 AM 29.2036 -81.4011 354° North 388 447 20,500 -1,150 Descending Jacksonville Center
Fri 08:55:38 AM 29.3081 -81.4114 355° North 388 447 19,700 -1,200 Descending Jacksonville Center
Fri 08:56:38 AM 29.4125 -81.4217 355° North 388 447 18,100 -1,500 Descending Jacksonville Center
Fri 08:57:38 AM 29.5150 -81.4344 354° North 383 441 16,700 2,950 Descending Jacksonville Center
Fri 08:58:38 AM 29.6133 -81.4450 355° North 366 421 24,000 -1,500 Climbing Jacksonville Center
Fri 08:59:38 AM 29.6664 -81.5372 304° West 322 371 13,700 -6,561 Descending Jacksonville Center
Fri 09:00:25 AM 29.7028 -81.6111 300° West 340 391 12,300 -1,500 Descending Jacksonville Center
Fri 09:00:38 AM 29.7194 -81.6250 324° Northwest 322 371 12,200 -1,300 Descending Jacksonville Center
Fri 09:01:25 AM 29.7928 -81.6433 348° North 337 388 11,000 -1,200 Descending Jacksonville Center
Fri 09:01:38 AM 29.8117 -81.6525 337° Northwest 322 371 11,000 -197 Level Jacksonville Center
Fri 09:02:26 AM 29.8828 -81.6683 349° North 333 383 10,800 -400 Descending Jacksonville Center
Fri 09:02:38 AM 29.8994 -81.6756 339° North 322 371 10,600 -1,612 Descending Jacksonville Center
Fri 09:03:33 AM 29.9686 -81.6939 347° North 279 321 9,000 -1,500 Descending Jacksonville Center
Fri 09:03:38 AM 29.9750 -81.6961 343° North 301 346 9,100 -1,527 Climbing Jacksonville Center
Fri 09:04:28 AM 30.0378 -81.7144 346° North 274 315 7,600 -1,600 Descending Jacksonville Center
Fri 09:04:38 AM 30.0481 -81.7167 349° North 284 327 7,500 -1,475 Descending Jacksonville Center
Fri 09:05:29 AM 30.1131 -81.7400 343° North 277 319 6,100 -1,500 Descending Jacksonville Center
Fri 09:05:38 AM 30.1236 -81.7422 350° North 277 319 6,000 -985 Descending Jacksonville Center
Fri 09:06:36 AM 30.1947 -81.7583 349° North 262 302 5,000 -1,000 Descending Jacksonville Center
Fri 09:06:38 AM 30.1883 -81.7558 161° South 271 312 5,000 -1,343 Level Jacksonville Center
Fri 09:07:43 AM 30.2722 -81.7789 347° North 266 306 3,500 -1,190 Descending Jacksonville Center
Fri 09:08:44 AM 30.3453 -81.7925 351° North 264 304 2,500 -934 Descending Jacksonville Center
Fri 09:09:45 AM 30.4122 -81.7917 North 229 264 1,600 -590 Descending Jacksonville Center
Fri 09:10:46 AM 30.4619 -81.7622 27° Northeast 173 199 1,300 -590 Descending Jacksonville Center
Fri 09:11:47 AM 30.4867 -81.7258 52° Northeast 123 142 400 -885 Descending Jacksonville Center
Fri 09:13:00 AM 30.4833 -81.6833 311° West  Level FlightAware Approximate
Fri 09:20:00 AM 30.4941 -81.6878 311° West  Level Estimated

Login

Don't have an account? Register now (free) for customized features, flight alerts, and more!